Time;durP1;ratioP1;P1;durP2;ratioP2;P2;SDS_P1;SDS_P2;PMS_P1;PMS_P2;Temp;Humidity;BMP_temperature;BMP_pressure;BME280_temperature;BME280_humidity;BME280_pressure;Samples;Min_cycle;Max_cycle;Signal;HPM_P1;HPM_P2
2022/01/01 00:00:30;;;;;;;4.83;3.57;;;;;;;10.60;67.03;101710.63;2079086;28;20608;-66
2022/01/01 00:01:30;;;;;;;4.67;3.50;;;;;;;10.62;67.06;101707.47;2080347;28;20190;-66
2022/01/01 00:02:31;;;;;;;5.03;3.70;;;;;;;10.45;67.11;101689.75;2080629;28;20635;-66
2022/01/01 00:03:31;;;;;;;4.93;3.10;;;;;;;10.55;67.06;101702.75;2080463;28;20208;-66
2022/01/01 00:04:31;;;;;;;4.97;3.23;;;;;;;10.55;67.14;101710.28;2080655;28;20223;-66
2022/01/01 00:05:32;;;;;;;4.40;3.00;;;;;;;10.55;67.22;101704.75;2081501;28;20291;-66
2022/01/01 00:06:32;;;;;;;4.57;3.00;;;;;;;10.43;67.56;101703.22;2082411;28;20185;-66
2022/01/01 00:07:34;;;;;;;4.57;2.80;;;;;;;9.68;67.80;101587.69;2081552;28;20225;-66
2022/01/01 00:08:35;;;;;;;4.07;3.00;;;;;;;10.27;67.87;101678.00;2081704;28;20192;-66
2022/01/01 00:09:36;;;;;;;3.80;2.90;;;;;;;10.29;67.93;101700.53;2081909;28;20936;-66
2022/01/01 00:10:36;;;;;;;3.73;2.80;;;;;;;10.19;68.19;101690.28;2081049;28;20181;-66
2022/01/01 00:11:37;;;;;;;5.50;3.30;;;;;;;10.20;68.46;101697.41;2082176;28;20420;-66
2022/01/01 00:12:41;;;;;;;3.23;2.63;;;;;;;10.27;68.37;101700.16;2082307;28;20177;-66
2022/01/01 00:13:41;;;;;;;4.10;3.00;;;;;;;10.23;68.52;101701.34;2082211;28;20268;-66
2022/01/01 00:14:42;;;;;;;4.23;3.20;;;;;;;10.22;68.51;101705.31;2082067;28;20429;-66
2022/01/01 00:15:42;;;;;;;5.57;2.90;;;;;;;9.17;68.50;101548.78;2082176;28;20261;-66
2022/01/01 00:16:43;;;;;;;4.07;2.73;;;;;;;10.16;68.57;101707.75;2082199;28;20676;-66
2022/01/01 00:17:43;;;;;;;5.53;2.90;;;;;;;10.17;68.73;101703.78;2082131;28;20199;-66
2022/01/01 00:18:44;;;;;;;4.17;2.97;;;;;;;9.97;68.82;101690.78;2082267;28;20204;-66
2022/01/01 00:19:44;;;;;;;4.07;3.03;;;;;;;10.03;69.12;101714.88;2081992;28;20181;-66
2022/01/01 00:20:45;;;;;;;4.23;3.20;;;;;;;10.07;69.20;101726.78;2080841;28;20664;-66
2022/01/01 00:21:45;;;;;;;4.50;3.23;;;;;;;10.12;69.23;101728.31;2082066;28;20185;-66
2022/01/01 00:22:46;;;;;;;5.43;3.90;;;;;;;10.10;69.42;101720.41;2082259;28;20647;-66
2022/01/01 00:23:46;;;;;;;5.20;3.47;;;;;;;10.10;69.42;101714.88;2082292;28;20264;-66
2022/01/01 00:24:47;;;;;;;4.50;3.57;;;;;;;10.08;69.36;101728.34;2082152;28;20185;-66
2022/01/01 00:25:47;;;;;;;5.10;3.40;;;;;;;10.09;69.51;101718.84;2082081;28;20204;-66
2022/01/01 00:26:48;;;;;;;4.57;3.10;;;;;;;10.13;69.45;101727.94;2082103;28;20391;-66
2022/01/01 00:27:48;;;;;;;5.83;3.27;;;;;;;10.16;69.18;101718.03;2081142;28;20200;-66
2022/01/01 00:28:49;;;;;;;4.40;2.93;;;;;;;10.11;69.45;101719.25;2081511;28;20185;-66
2022/01/01 00:29:49;;;;;;;4.63;2.93;;;;;;;9.99;69.37;101705.03;2081349;28;20259;-66
2022/01/01 00:30:49;;;;;;;4.33;3.10;;;;;;;10.21;69.36;101732.25;2081132;28;20188;-66
2022/01/01 00:31:50;;;;;;;5.00;2.83;;;;;;;10.23;69.12;101712.44;2082003;28;20184;-66
2022/01/01 00:32:51;;;;;;;3.37;2.50;;;;;;;10.30;68.98;101721.50;2082226;28;20215;-66
2022/01/01 00:33:51;;;;;;;4.77;2.70;;;;;;;10.34;69.07;101719.50;2082134;28;20208;-66
2022/01/01 00:34:51;;;;;;;4.63;2.70;;;;;;;10.34;68.50;101713.16;2082074;28;20181;-66
2022/01/01 00:35:52;;;;;;;3.77;2.57;;;;;;;10.50;68.28;101719.03;2082089;28;20181;-66
2022/01/01 00:36:52;;;;;;;3.63;2.73;;;;;;;10.47;68.36;101722.59;2082086;28;20181;-66
2022/01/01 00:37:53;;;;;;;3.80;2.67;;;;;;;10.51;68.31;101724.16;2082045;28;20181;-66
2022/01/01 00:38:54;;;;;;;4.30;2.40;;;;;;;10.48;68.48;101729.72;2082004;28;20192;-66
2022/01/01 00:39:55;;;;;;;4.50;3.10;;;;;;;10.49;68.38;101726.53;2081098;28;20239;-66
2022/01/01 00:40:56;;;;;;;3.87;2.87;;;;;;;10.45;68.27;101722.22;2081450;28;20192;-67
2022/01/01 00:41:56;;;;;;;4.50;2.73;;;;;;;10.59;68.17;101738.75;2081926;28;20425;-66
2022/01/01 00:42:56;;;;;;;4.17;3.00;;;;;;;10.65;67.81;101735.16;2081957;28;20181;-66
2022/01/01 00:43:57;;;;;;;3.83;2.80;;;;;;;10.65;67.92;101740.69;2082017;28;20169;-66
2022/01/01 00:44:58;;;;;;;5.50;3.40;;;;;;;10.64;67.79;101733.59;2082008;28;20698;-66
2022/01/01 00:45:58;;;;;;;4.10;2.90;;;;;;;10.66;67.66;101741.50;2082000;28;20200;-66
2022/01/01 00:46:59;;;;;;;4.53;3.07;;;;;;;10.70;67.64;101737.50;2081964;28;20264;-66
2022/01/01 00:48:00;;;;;;;4.63;3.10;;;;;;;10.75;67.60;101733.50;2082091;28;20170;-66
2022/01/01 00:49:00;;;;;;;4.80;3.30;;;;;;;10.70;67.42;101742.25;2082126;28;20173;-66
2022/01/01 00:50:01;;;;;;;4.97;3.10;;;;;;;10.69;67.41;101733.16;2080955;28;20246;-66
2022/01/01 00:51:01;;;;;;;5.03;3.23;;;;;;;9.74;67.47;101583.28;2081335;28;20184;-66
2022/01/01 00:52:02;;;;;;;4.33;3.17;;;;;;;10.75;67.38;101737.06;2081838;28;20181;-66
2022/01/01 00:53:03;;;;;;;4.80;3.20;;;;;;;10.82;67.05;101731.47;2081922;28;20680;-66
2022/01/01 00:54:04;;;;;;;4.77;2.90;;;;;;;10.80;67.06;101741.38;2081979;28;20256;-66
2022/01/01 00:55:05;;;;;;;6.70;3.13;;;;;;;10.78;67.02;101738.22;2082014;28;20181;-66
2022/01/01 00:56:06;;;;;;;5.13;3.10;;;;;;;10.85;66.97;101738.97;2081916;28;20437;-66
2022/01/01 00:57:06;;;;;;;5.83;3.30;;;;;;;10.89;66.88;101742.53;2081321;28;21066;-66
2022/01/01 00:58:07;;;;;;;5.13;3.40;;;;;;;10.97;66.45;101737.69;2081184;28;20177;-66
2022/01/01 00:59:07;;;;;;;4.67;3.33;;;;;;;10.88;66.82;101740.16;2081772;28;20181;-66
2022/01/01 01:00:08;;;;;;;4.40;3.20;;;;;;;10.42;66.72;101687.00;2080994;28;20188;-66
2022/01/01 01:01:09;;;;;;;4.80;3.23;;;;;;;10.85;66.96;101743.72;2081728;28;20177;-66
2022/01/01 01:02:09;;;;;;;4.53;2.97;;;;;;;10.85;66.86;101738.16;2081820;28;20427;-66
2022/01/01 01:03:13;;;;;;;3.90;2.93;;;;;;;10.79;67.00;101729.50;2081836;28;20177;-66
2022/01/01 01:04:13;;;;;;;4.27;3.27;;;;;;;10.75;67.04;101747.34;2081707;28;20698;-66
2022/01/01 01:05:15;;;;;;;3.97;2.97;;;;;;;10.63;67.24;101720.13;2081118;28;20517;-66
2022/01/01 01:06:16;;;;;;;4.90;3.60;;;;;;;10.68;67.31;101748.22;2081352;28;20443;-66
2022/01/01 01:07:16;;;;;;;4.87;3.33;;;;;;;10.70;67.29;101747.78;2081935;28;20226;-66
2022/01/01 01:08:17;;;;;;;4.57;3.53;;;;;;;10.60;67.27;101729.25;2081814;28;20185;-66
2022/01/01 01:09:17;;;;;;;6.17;3.70;;;;;;;10.66;67.25;101753.34;2081869;28;20177;-66
2022/01/01 01:10:18;;;;;;;4.53;3.73;;;;;;;10.56;67.66;101742.34;2080222;28;20268;-66
2022/01/01 01:11:19;;;;;;;4.73;3.63;;;;;;;10.61;67.58;101742.69;2081591;28;20548;-66
2022/01/01 01:12:26;;;;;;;5.17;3.70;;;;;;;10.57;67.51;101744.72;2081000;28;20185;-66
2022/01/01 01:13:31;;;;;;;3.93;3.03;;;;;;;10.00;67.77;101670.59;2081202;28;20166;-66
2022/01/01 01:14:39;;;;;;;4.83;3.40;;;;;;;10.53;67.67;101735.63;2081699;28;20932;-66
2022/01/01 01:15:40;;;;;;;6.80;3.60;;;;;;;10.37;67.76;101713.16;2081515;28;20420;-66
2022/01/01 01:16:40;;;;;;;4.40;3.40;;;;;;;10.50;67.64;101743.97;2081395;28;20428;-66
2022/01/01 01:17:41;;;;;;;3.70;2.97;;;;;;;10.44;67.93;101732.50;2081697;28;20681;-66
2022/01/01 01:18:42;;;;;;;5.00;3.63;;;;;;;10.36;67.89;101724.66;2081777;28;20424;-66
2022/01/01 01:19:42;;;;;;;3.80;3.13;;;;;;;10.17;68.13;101717.63;2081352;28;20293;-66
2022/01/01 01:20:43;;;;;;;5.43;3.40;;;;;;;10.05;68.15;101675.75;2080461;28;20189;-66
2022/01/01 01:21:44;;;;;;;4.87;3.40;;;;;;;10.23;68.18;101709.66;2081644;28;20201;-66
2022/01/01 01:22:45;;;;;;;4.83;3.37;;;;;;;10.34;68.15;101732.56;2081709;28;20189;-66
2022/01/01 01:23:47;;;;;;;4.13;3.10;;;;;;;10.24;68.28;101719.56;2081674;28;20427;-66
2022/01/01 01:24:48;;;;;;;4.33;3.10;;;;;;;10.29;68.36;101736.56;2081674;28;20423;-66
2022/01/01 01:25:48;;;;;;;4.80;3.60;;;;;;;10.29;68.39;101727.44;2081674;28;20524;-66
2022/01/01 01:26:50;;;;;;;4.17;3.20;;;;;;;10.30;68.32;101729.03;2081614;28;20219;-66
2022/01/01 01:27:51;;;;;;;6.13;3.57;;;;;;;10.33;68.22;101720.69;2081326;28;20181;-66
2022/01/01 01:28:52;;;;;;;4.80;3.70;;;;;;;10.24;68.27;101703.72;2081539;28;20462;-66
2022/01/01 01:29:53;;;;;;;4.47;3.47;;;;;;;10.40;68.09;101723.41;2080862;28;20185;-67
2022/01/01 01:30:53;;;;;;;5.47;4.10;;;;;;;10.47;67.61;101722.59;2080964;28;20431;-66
2022/01/01 01:31:54;;;;;;;4.63;3.90;;;;;;;10.21;67.67;101687.13;2081552;28;20191;-66
2022/01/01 01:32:54;;;;;;;5.50;4.37;;;;;;;9.99;67.63;101658.72;2081579;28;20188;-66
2022/01/01 01:33:55;;;;;;;4.07;3.27;;;;;;;10.30;67.85;101698.56;2081679;28;20205;-66
2022/01/01 01:34:55;;;;;;;5.50;3.30;;;;;;;10.22;68.13;101710.88;2081599;28;20680;-66
2022/01/01 01:35:56;;;;;;;5.97;3.73;;;;;;;10.24;68.17;101711.25;2081555;28;20267;-66
2022/01/01 01:36:56;;;;;;;4.87;3.30;;;;;;;10.27;68.18;101714.00;2081715;28;20263;-66
2022/01/01 01:37:57;;;;;;;5.50;3.63;;;;;;;10.31;68.32;101709.22;2081672;28;20177;-67
2022/01/01 01:38:57;;;;;;;5.20;4.07;;;;;;;10.27;68.22;101716.78;2081454;28;20263;-66
2022/01/01 01:39:59;;;;;;;5.73;3.30;;;;;;;10.32;68.26;101715.56;2079909;28;20192;-66
2022/01/01 01:40:59;;;;;;;5.17;3.07;;;;;;;10.16;68.19;101691.13;2080209;28;20692;-66
2022/01/01 01:41:59;;;;;;;3.67;2.90;;;;;;;10.30;68.26;101706.88;2081461;28;20789;-66
2022/01/01 01:43:07;;;;;;;4.53;3.30;;;;;;;10.00;68.50;101674.13;2081563;28;20239;-66
2022/01/01 01:44:24;;;;;;;3.83;2.80;;;;;;;10.18;68.80;101702.56;2081507;28;20239;-66
2022/01/01 01:45:28;;;;;;;4.07;2.67;;;;;;;10.15;68.70;101708.13;2081570;28;20441;-66
2022/01/01 01:46:29;;;;;;;4.67;3.43;;;;;;;9.50;68.79;101597.25;2081484;28;20514;-66
2022/01/01 01:47:32;;;;;;;4.17;3.20;;;;;;;10.13;68.78;101691.91;2081488;28;20430;-66
2022/01/01 01:48:36;;;;;;;4.77;3.20;;;;;;;10.17;68.68;101684.38;2081549;28;20296;-66
2022/01/01 01:49:36;;;;;;;4.67;3.03;;;;;;;10.26;68.61;101700.56;2081147;28;20420;-66
2022/01/01 01:50:37;;;;;;;3.97;2.93;;;;;;;10.32;68.56;101704.47;2080143;28;20431;-66
2022/01/01 01:51:38;;;;;;;5.00;2.93;;;;;;;10.44;68.21;101702.03;2080791;28;20172;-66
2022/01/01 01:52:42;;;;;;;4.10;2.77;;;;;;;10.49;68.11;101715.47;2080834;28;20673;-66
2022/01/01 01:53:42;;;;;;;5.27;2.63;;;;;;;10.61;67.97;101709.44;2081394;28;20183;-66
2022/01/01 01:54:43;;;;;;;4.00;2.80;;;;;;;9.88;67.87;101588.75;2081256;28;20425;-66
2022/01/01 01:55:44;;;;;;;5.00;2.60;;;;;;;10.63;67.82;101707.06;2081563;28;20251;-66
2022/01/01 01:56:45;;;;;;;4.63;3.20;;;;;;;10.73;67.62;101706.19;2081202;28;20181;-66
2022/01/01 01:57:46;;;;;;;4.13;2.77;;;;;;;10.87;67.24;101702.53;2081092;28;20231;-66
2022/01/01 01:58:46;;;;;;;4.93;3.03;;;;;;;10.94;67.08;101706.03;2081402;28;20989;-66
2022/01/01 01:59:47;;;;;;;3.57;2.50;;;;;;;11.00;66.74;101700.81;2080930;28;20604;-66
2022/01/01 02:01:54;;;;;;;3.20;2.50;;;;;;;11.13;66.54;101693.56;2081328;28;20164;-66
2022/01/01 02:02:55;;;;;;;4.80;3.30;;;;;;;11.15;66.36;101699.50;2081300;28;20421;-66
2022/01/01 02:03:57;;;;;;;6.80;5.13;;;;;;;10.92;66.24;101658.47;2081172;28;20277;-66
2022/01/01 02:04:57;;;;;;;6.53;5.03;;;;;;;11.20;66.18;101697.06;2081143;28;20271;-66
2022/01/01 02:05:58;;;;;;;9.10;6.10;;;;;;;11.18;66.14;101696.69;2081234;28;20517;-66
2022/01/01 02:06:59;;;;;;;8.10;6.00;;;;;;;11.21;66.19;101697.84;2081387;28;20182;-66
2022/01/01 02:08:00;;;;;;;6.23;4.40;;;;;;;11.26;66.10;101691.84;2081392;28;20419;-66
2022/01/01 02:09:00;;;;;;;5.90;3.73;;;;;;;11.26;65.92;101697.41;2080526;28;20673;-66
2022/01/01 02:10:01;;;;;;;5.83;4.20;;;;;;;11.29;65.93;101704.91;2079858;28;20211;-66
2022/01/01 02:11:04;;;;;;;4.93;3.67;;;;;;;11.07;65.86;101668.25;2080577;28;20172;-66
2022/01/01 02:12:09;;;;;;;4.27;3.13;;;;;;;11.23;65.67;101687.16;2081209;28;20184;-66
2022/01/01 02:13:19;;;;;;;4.17;2.87;;;;;;;11.24;65.86;101692.28;2081390;28;20414;-66
2022/01/01 02:14:50;;;;;;;5.63;3.03;;;;;;;11.29;65.93;101710.47;2081350;28;20405;-66
2022/01/01 02:17:08;;;;;;;4.90;3.37;;;;;;;11.26;65.93;101683.53;2081239;28;20465;-66
2022/01/01 02:18:09;;;;;;;5.30;3.70;;;;;;;10.42;66.08;101538.16;2081344;28;20167;-66
2022/01/01 02:19:09;;;;;;;6.00;4.43;;;;;;;11.20;65.74;101657.44;2080509;28;20522;-66
2022/01/01 02:20:18;;;;;;;6.83;4.63;;;;;;;11.14;65.85;101656.31;2079487;28;20175;-66
2022/01/01 02:21:20;;;;;;;6.77;4.73;;;;;;;11.36;65.78;101665.97;2080700;28;20173;-66
2022/01/01 02:22:22;;;;;;;6.80;4.60;;;;;;;11.38;65.70;101655.28;2080506;28;20455;-66
2022/01/01 02:23:26;;;;;;;6.00;4.50;;;;;;;11.31;65.68;101652.56;2080425;28;20431;-66
2022/01/01 02:24:26;;;;;;;6.53;4.43;;;;;;;11.34;65.84;101657.28;2080618;28;20506;-66
2022/01/01 02:25:29;;;;;;;6.47;4.70;;;;;;;11.33;66.05;101652.94;2081074;28;20427;-66
2022/01/01 02:26:33;;;;;;;5.83;4.43;;;;;;;11.23;66.09;101631.66;2081151;28;20720;-66
2022/01/01 02:27:36;;;;;;;5.60;4.20;;;;;;;11.34;66.34;101649.78;2080760;28;20419;-66
2022/01/01 02:28:37;;;;;;;5.00;3.60;;;;;;;11.34;66.27;101649.78;2080692;28;20948;-66
2022/01/01 02:29:38;;;;;;;5.43;3.23;;;;;;;11.33;66.53;101656.50;2080694;28;20938;-66
2022/01/01 02:30:38;;;;;;;5.30;3.87;;;;;;;11.30;66.27;101648.22;2079996;28;20181;-66
2022/01/01 02:31:39;;;;;;;4.03;3.30;;;;;;;11.46;66.07;101660.34;2081038;28;20411;-66
2022/01/01 02:32:39;;;;;;;5.07;3.50;;;;;;;11.50;65.82;101658.31;2081117;28;20207;-66
2022/01/01 02:33:42;;;;;;;6.70;4.10;;;;;;;11.51;65.61;101650.75;2081182;28;20548;-66
2022/01/01 02:34:43;;;;;;;4.53;3.40;;;;;;;10.77;65.60;101540.56;2081197;28;20185;-66
2022/01/01 02:35:44;;;;;;;4.27;3.27;;;;;;;11.46;65.95;101654.78;2081177;28;20473;-66
2022/01/01 02:36:45;;;;;;;5.10;3.80;;;;;;;11.44;65.85;101654.41;2081096;28;20422;-66
2022/01/01 02:37:45;;;;;;;6.23;3.80;;;;;;;10.91;65.75;101586.81;2081214;28;20173;-66
2022/01/01 02:38:46;;;;;;;4.33;3.30;;;;;;;11.46;65.76;101649.22;2081046;28;20176;-66
2022/01/01 02:39:46;;;;;;;4.37;3.33;;;;;;;11.45;66.16;101652.41;2080579;28;20550;-67
2022/01/01 02:40:47;;;;;;;4.63;3.27;;;;;;;11.42;66.16;101647.69;2080234;28;20176;-66
2022/01/01 02:41:51;;;;;;;4.60;3.20;;;;;;;11.25;66.27;101621.72;2081014;28;20181;-66
2022/01/01 02:42:52;;;;;;;5.40;3.87;;;;;;;11.37;66.38;101639.84;2080406;28;20647;-66
2022/01/01 02:43:53;;;;;;;5.90;3.83;;;;;;;11.41;66.13;101638.56;2080357;28;20419;-66
2022/01/01 02:44:54;;;;;;;5.20;3.63;;;;;;;11.29;66.19;101614.16;2072887;28;20494;-66
2022/01/01 02:45:55;;;;;;;5.83;3.80;;;;;;;11.43;66.35;101627.06;2072889;28;20544;-66
2022/01/01 02:46:56;;;;;;;4.27;3.47;;;;;;;11.43;66.21;101625.06;2072893;28;20216;-66
2022/01/01 02:47:57;;;;;;;4.13;3.47;;;;;;;11.44;66.25;101623.09;2072917;28;20239;-66
2022/01/01 02:48:57;;;;;;;7.47;3.33;;;;;;;11.45;66.06;101619.09;2072250;28;20435;-66
2022/01/01 02:49:58;;;;;;;4.77;3.10;;;;;;;11.48;66.16;101610.72;2071481;28;20659;-66
2022/01/01 02:50:58;;;;;;;4.23;2.63;;;;;;;11.48;66.16;101613.50;2072164;28;20180;-66
2022/01/01 02:51:59;;;;;;;4.13;2.33;;;;;;;11.32;66.32;101598.66;2075354;28;20173;-66
2022/01/01 02:52:59;;;;;;;3.40;2.43;;;;;;;11.37;66.24;101612.06;2080871;28;20702;-66
2022/01/01 02:54:00;;;;;;;3.53;2.40;;;;;;;11.37;66.73;101609.31;2081134;28;20197;-66
2022/01/01 02:55:01;;;;;;;3.33;2.30;;;;;;;11.39;66.62;101609.66;2081060;28;20213;-66
2022/01/01 02:56:02;;;;;;;3.57;2.30;;;;;;;11.48;66.02;101618.28;2081008;28;20169;-66
2022/01/01 02:57:02;;;;;;;4.40;2.30;;;;;;;10.32;65.89;101430.19;2081028;28;20184;-66
2022/01/01 02:58:04;;;;;;;4.03;2.30;;;;;;;10.89;65.80;101528.19;2080833;28;20173;-66
2022/01/01 02:59:04;;;;;;;3.20;2.13;;;;;;;11.48;66.05;101629.38;2081077;28;20172;-66
2022/01/01 03:00:06;;;;;;;3.50;2.53;;;;;;;11.43;66.09;101625.06;2080145;28;20455;-66
2022/01/01 03:01:06;;;;;;;5.50;2.77;;;;;;;11.55;65.88;101629.28;2080363;28;20261;-66
2022/01/01 03:02:07;;;;;;;3.53;2.30;;;;;;;11.54;66.07;101625.72;2080854;28;20403;-66
2022/01/01 03:03:07;;;;;;;4.40;2.60;;;;;;;11.58;66.10;101625.69;2080894;28;20251;-66
2022/01/01 03:04:08;;;;;;;5.77;2.63;;;;;;;11.64;65.61;101626.84;2080879;28;20295;-66
2022/01/01 03:05:08;;;;;;;3.20;2.07;;;;;;;11.63;65.70;101628.06;2080269;28;20191;-66
2022/01/01 03:06:09;;;;;;;2.73;2.00;;;;;;;11.46;65.47;101604.00;2080180;28;20207;-66
2022/01/01 03:07:10;;;;;;;2.90;2.23;;;;;;;11.70;65.59;101634.31;2080918;28;20177;-66
2022/01/01 03:08:11;;;;;;;2.97;2.37;;;;;;;11.62;65.62;101618.94;2081087;28;20280;-66
2022/01/01 03:09:11;;;;;;;3.50;2.37;;;;;;;11.74;65.46;101634.25;2080875;28;20172;-66
2022/01/01 03:10:12;;;;;;;3.47;2.10;;;;;;;11.70;65.51;101633.50;2079801;28;20169;-66
2022/01/01 03:11:12;;;;;;;4.13;2.20;;;;;;;11.73;65.65;101633.47;2080753;28;20553;-66
2022/01/01 03:12:14;;;;;;;3.33;2.13;;;;;;;11.66;65.54;101619.69;2080610;28;20195;-66
2022/01/01 03:13:14;;;;;;;2.90;2.00;;;;;;;11.48;65.61;101594.06;2081003;28;20222;-66
2022/01/01 03:14:17;;;;;;;2.97;2.20;;;;;;;11.77;65.75;101630.63;2080973;28;20470;-66
2022/01/01 03:15:17;;;;;;;3.50;1.70;;;;;;;11.73;65.51;101627.91;2080879;28;20185;-66
2022/01/01 03:16:18;;;;;;;2.77;2.07;;;;;;;11.22;65.26;101561.47;2080686;28;20424;-66
2022/01/01 03:17:19;;;;;;;3.73;2.20;;;;;;;11.16;65.47;101563.16;2080969;28;20773;-66
2022/01/01 03:18:19;;;;;;;3.07;1.93;;;;;;;11.71;65.52;101637.84;2080975;28;20606;-66
2022/01/01 03:19:19;;;;;;;3.30;2.30;;;;;;;11.73;65.56;101639.00;2080908;28;20247;-67
2022/01/01 03:20:20;;;;;;;3.43;2.60;;;;;;;11.70;65.83;101637.09;2079297;28;20177;-66
2022/01/01 03:21:20;;;;;;;3.43;2.43;;;;;;;11.73;65.80;101633.47;2080877;28;20252;-66
2022/01/01 03:22:21;;;;;;;3.23;2.30;;;;;;;11.39;65.62;101582.72;2080091;28;20651;-66
2022/01/01 03:23:22;;;;;;;3.40;2.40;;;;;;;11.74;65.53;101635.03;2080300;28;20593;-66
2022/01/01 03:24:24;;;;;;;3.73;2.30;;;;;;;11.68;65.61;101625.59;2080889;28;20196;-66
2022/01/01 03:25:24;;;;;;;4.20;2.60;;;;;;;11.76;65.53;101632.63;2080874;28;20557;-66
2022/01/01 03:26:25;;;;;;;6.70;2.47;;;;;;;11.56;65.63;101614.22;2080846;28;20413;-66
2022/01/01 03:27:25;;;;;;;3.20;2.10;;;;;;;11.73;65.84;101638.25;2080919;28;20177;-66
2022/01/01 03:28:27;;;;;;;4.97;2.50;;;;;;;11.32;65.96;101570.91;2080513;28;20215;-66
2022/01/01 03:29:30;;;;;;;3.77;2.30;;;;;;;11.83;65.46;101638.09;2080549;28;20175;-66
2022/01/01 03:30:30;;;;;;;3.40;2.30;;;;;;;11.90;65.22;101643.56;2079639;28;20415;-66
2022/01/01 03:31:31;;;;;;;3.70;2.30;;;;;;;11.92;65.24;101643.13;2080766;28;20419;-66
2022/01/01 03:32:31;;;;;;;4.10;2.47;;;;;;;11.90;65.32;101642.78;2080726;28;20177;-66
2022/01/01 03:33:32;;;;;;;2.93;2.13;;;;;;;11.95;65.09;101639.53;2080820;28;20256;-66
2022/01/01 03:34:32;;;;;;;2.97;2.10;;;;;;;11.97;64.96;101637.91;2080828;28;20205;-66
2022/01/01 03:35:33;;;;;;;3.27;2.23;;;;;;;11.95;65.00;101642.31;2080841;28;20170;-66
2022/01/01 03:36:33;;;;;;;4.13;2.40;;;;;;;11.76;65.05;101612.41;2080913;28;20177;-66
2022/01/01 03:37:34;;;;;;;2.87;2.00;;;;;;;10.75;64.91;101448.72;2080762;28;20596;-66
2022/01/01 03:38:34;;;;;;;3.10;2.30;;;;;;;11.83;65.30;101638.09;2080866;28;20184;-67
2022/01/01 03:39:35;;;;;;;2.50;1.90;;;;;;;11.50;65.20;101597.25;2081561;28;20184;-66
2022/01/01 03:40:35;;;;;;;2.63;1.93;;;;;;;11.89;65.08;101630.88;2081282;28;20557;-66
2022/01/01 03:41:36;;;;;;;4.13;2.30;;;;;;;11.95;64.96;101639.53;2082605;28;20716;-66
2022/01/01 03:42:36;;;;;;;2.50;1.97;;;;;;;11.72;65.18;101618.00;2082398;28;20176;-66
2022/01/01 03:43:38;;;;;;;3.10;2.17;;;;;;;11.72;65.20;101615.22;2081787;28;20266;-66
2022/01/01 03:44:38;;;;;;;3.63;2.20;;;;;;;11.82;65.37;101632.94;2081792;28;20177;-66
2022/01/01 03:45:38;;;;;;;3.70;2.20;;;;;;;11.23;65.40;101543.63;2082433;28;20538;-66
2022/01/01 03:46:39;;;;;;;3.60;2.40;;;;;;;11.77;65.49;101634.22;2082415;28;20206;-66
2022/01/01 03:47:39;;;;;;;3.67;2.17;;;;;;;11.79;65.43;101626.22;2082437;28;20199;-66
2022/01/01 03:48:40;;;;;;;2.57;1.83;;;;;;;11.83;65.36;101620.66;2082363;28;20557;-66
2022/01/01 03:49:40;;;;;;;3.03;2.00;;;;;;;11.91;65.22;101631.25;2081931;28;20559;-67
2022/01/01 03:50:41;;;;;;;2.67;2.03;;;;;;;11.14;65.37;101525.91;2080499;28;20259;-66
2022/01/01 03:51:42;;;;;;;2.73;1.80;;;;;;;11.83;65.17;101632.53;2081562;28;20655;-66
2022/01/01 03:52:44;;;;;;;3.23;1.90;;;;;;;11.55;65.53;101605.13;2082452;28;20173;-66
2022/01/01 03:53:44;;;;;;;3.23;1.80;;;;;;;10.99;65.66;101524.50;2082366;28;20208;-66
2022/01/01 03:54:45;;;;;;;3.10;1.80;;;;;;;11.72;65.57;101631.88;2082517;28;20996;-66
2022/01/01 03:55:46;;;;;;;3.17;1.90;;;;;;;11.70;65.90;101627.94;2082367;28;20177;-66
2022/01/01 03:56:46;;;;;;;2.60;1.97;;;;;;;11.46;66.03;101595.69;2082358;28;20185;-66
2022/01/01 03:57:47;;;;;;;3.40;1.80;;;;;;;11.12;65.99;101554.06;2081663;28;20438;-66
2022/01/01 03:58:47;;;;;;;2.43;1.73;;;;;;;11.33;65.78;101589.88;2081526;28;20268;-66
2022/01/01 03:59:48;;;;;;;3.10;1.70;;;;;;;11.76;65.66;101634.63;2081711;28;20242;-66
2022/01/01 04:00:48;;;;;;;2.30;1.80;;;;;;;11.78;65.53;101630.22;2081533;28;20173;-66
2022/01/01 04:01:48;;;;;;;3.23;2.00;;;;;;;11.82;65.19;101635.72;2082317;28;20177;-66
2022/01/01 04:02:49;;;;;;;3.40;2.03;;;;;;;11.62;65.45;101610.59;2082131;28;20168;-66
2022/01/01 04:03:49;;;;;;;2.90;1.63;;;;;;;11.64;65.48;101618.50;2082020;28;20251;-66
2022/01/01 04:04:50;;;;;;;2.53;1.73;;;;;;;11.62;65.83;101635.59;2082252;28;20176;-66
2022/01/01 04:05:50;;;;;;;3.10;2.07;;;;;;;11.33;65.83;101594.66;2081384;28;20193;-66
2022/01/01 04:06:52;;;;;;;2.33;1.70;;;;;;;10.95;66.21;101551.50;2081620;28;20322;-67
2022/01/01 04:07:52;;;;;;;2.83;1.90;;;;;;;11.63;66.00;101642.72;2082333;28;20643;-66
2022/01/01 04:08:53;;;;;;;2.30;1.63;;;;;;;11.59;65.86;101638.41;2082244;28;20810;-66
2022/01/01 04:09:53;;;;;;;2.27;1.63;;;;;;;10.61;65.52;101459.97;2081393;28;20224;-66
2022/01/01 04:10:54;;;;;;;2.20;1.67;;;;;;;11.65;65.83;101628.41;2081634;28;20173;-66
2022/01/01 04:11:55;;;;;;;2.20;1.63;;;;;;;11.55;66.15;101630.09;2082191;28;20185;-66
2022/01/01 04:12:55;;;;;;;2.27;1.53;;;;;;;11.42;66.41;101614.41;2082191;28;20276;-66
2022/01/01 04:13:56;;;;;;;2.80;1.97;;;;;;;11.49;66.39;101628.97;2082321;28;20173;-66
2022/01/01 04:14:59;;;;;;;2.63;1.83;;;;;;;10.64;66.10;101488.84;2082304;28;20654;-66
2022/01/01 04:15:59;;;;;;;2.37;1.60;;;;;;;11.24;65.99;101572.19;2082206;28;20193;-66
2022/01/01 04:17:00;;;;;;;2.13;1.60;;;;;;;11.65;65.97;101632.00;2082132;28;20400;-66
2022/01/01 04:18:05;;;;;;;2.43;1.70;;;;;;;11.33;65.50;101576.00;2082221;28;20201;-66
2022/01/01 04:19:06;;;;;;;2.30;1.70;;;;;;;11.19;65.67;101561.53;2082270;28;20532;-66
2022/01/01 04:20:07;;;;;;;2.70;1.60;;;;;;;11.77;65.55;101645.31;2081356;28;20466;-66
2022/01/01 04:21:09;;;;;;;2.53;1.77;;;;;;;11.67;65.43;101629.56;2081833;28;20197;-66
2022/01/01 04:22:13;;;;;;;2.23;1.53;;;;;;;11.47;65.68;101608.41;2082077;28;20473;-66
2022/01/01 04:23:14;;;;;;;2.00;1.50;;;;;;;11.69;65.65;101649.38;2082147;28;20415;-67
2022/01/01 04:24:14;;;;;;;2.60;1.80;;;;;;;10.93;65.74;101532.50;2082089;28;20423;-66
2022/01/01 04:25:15;;;;;;;2.90;1.73;;;;;;;11.36;65.47;101597.41;2082115;28;20170;-66
2022/01/01 04:26:15;;;;;;;2.87;1.67;;;;;;;11.72;65.49;101651.31;2081428;28;20224;-66
2022/01/01 04:27:15;;;;;;;1.80;1.30;;;;;;;11.75;65.52;101646.94;2081451;28;20199;-66
2022/01/01 04:28:16;;;;;;;2.10;1.70;;;;;;;11.51;65.42;101609.91;2081818;28;20729;-67
2022/01/01 04:29:16;;;;;;;2.67;1.53;;;;;;;11.76;65.40;101646.53;2082044;28;20189;-66
2022/01/01 04:33:08;;;;;;;2.90;1.80;;;;;;;11.71;65.53;101641.44;2076387;28;20659;-66
2022/01/01 04:34:08;;;;;;;2.97;1.90;;;;;;;11.41;65.71;101621.13;2087833;28;21065;-66
2022/01/01 04:35:10;;;;;;;3.33;1.90;;;;;;;11.67;65.68;101645.44;2088906;28;20538;-66
2022/01/01 04:36:11;;;;;;;2.87;1.83;;;;;;;11.71;65.63;101640.63;2089186;28;20591;-66
2022/01/01 04:37:13;;;;;;;2.70;1.80;;;;;;;11.44;65.14;101587.00;2089334;28;20433;-66
2022/01/01 04:38:34;;;;;;;2.57;1.73;;;;;;;11.76;65.42;101638.19;2089208;28;20173;-66
2022/01/01 04:39:33;;;;;;;4.07;2.40;;;;;;;11.86;64.97;101639.25;2088712;28;20983;-66
2022/01/01 04:40:34;;;;;;;3.27;2.30;;;;;;;11.90;64.85;101642.78;2088098;28;20860;-67
2022/01/01 04:41:34;;;;;;;3.40;2.30;;;;;;;11.75;64.56;101633.06;2097465;28;20720;-66
2022/01/01 04:42:35;;;;;;;3.00;2.00;;;;;;;11.94;64.92;101641.50;2097253;28;20266;-66
2022/01/01 04:43:36;;;;;;;4.37;2.50;;;;;;;11.81;64.85;101618.28;2089195;28;20698;-66
2022/01/01 04:44:36;;;;;;;3.40;2.10;;;;;;;10.77;64.68;101451.09;2089114;28;20258;-66
2022/01/01 04:45:37;;;;;;;2.90;2.00;;;;;;;11.93;64.72;101628.84;2089086;28;20184;-66
2022/01/01 04:46:37;;;;;;;3.00;2.10;;;;;;;11.88;64.63;101632.06;2089194;28;20296;-66
2022/01/01 04:47:38;;;;;;;3.57;2.20;;;;;;;11.87;65.00;101626.94;2089225;28;20176;-67
2022/01/01 04:48:40;;;;;;;3.40;2.43;;;;;;;11.90;64.95;101631.66;2089103;28;20564;-66
2022/01/01 04:49:41;;;;;;;3.10;2.10;;;;;;;11.90;64.79;101620.56;2088908;28;20185;-67